Latest Coastal Weather Observations for Melbourne (Olympic Park)

IDV60701

Issued at 7:52 pm EST Monday 4 May 2026 (issued every 10 minutes, with the page automatically refreshed every 10 minutes)

About coastal observations | Map of coastal stations | Coastal observations for VIC | Marine services | Other Formats
Station Details ID: 086338 Name: MELBOURNE (OLYMPIC PARK) Lat: -37.83 Lon: 144.98 Height: 7.53 m
Data from the previous 72 hours. | See also: Recent months at Melbourne (Olympic Park)
Date/Time
EST
Wind Sea
Height
m
Swell Vis
km
Cloud Weather Temp
°C
Press
MSL
hPa
Rain since
9am
mm
Dir  Spd
kts
Gust
kts
Height
m
Period
s
Dir
04/07:30pm N 8 11 - - - - 10 - - 15.2 1011.7 0.2
04/07:00pm N 9 14 - - - - 10 - - 15.2 1011.2 0.2
04/06:30pm N 9 15 - - - - 10 - - 15.4 1010.8 0.2
04/06:00pm N 9 15 - - - - 10 - - 15.6 1010.5 0.2
04/05:30pm N 10 19 - - - - 10 - - 16.0 1010.2 0.2
04/05:00pm N 13 22 - - - - 10 - - 16.2 1010.0 0.2
04/04:30pm N 14 23 - - - - 10 - - 17.0 1009.7 0.0
04/04:00pm N 13 23 - - - - 10 - - 17.3 1009.4 0.0
04/03:30pm N 14 20 - - - - 10 - - 17.6 1009.6 0.0
04/03:00pm N 15 24 - - - - 10 - - 18.1 1009.3 0.0
04/02:30pm N 15 25 - - - - 10 - - 18.2 1009.3 0.0
04/02:25pm N 15 25 - - - - 10 - - 17.8 1009.3 0.0
04/02:00pm N 14 25 - - - - 10 - - 18.0 1009.3 0.0
04/01:33pm N 16 26 - - - - 10 - - 17.5 1009.4 0.0
04/01:30pm N 15 22 - - - - 10 - - 17.6 1009.5 0.0
04/01:00pm N 14 23 - - - - 10 - - 17.9 1009.7 0.0
04/12:33pm NNW 15 25 - - - - 10 - - 17.8 1010.1 0.0
04/12:30pm N 14 24 - - - - 10 - - 17.8 1010.2 0.0
04/12:00pm N 17 28 - - - - 10 - - 17.6 1010.7 0.0
04/11:33am N 16 26 - - - - 10 - - 17.0 1010.8 0.0
04/11:30am N 16 25 - - - - 10 - - 16.8 1010.9 0.0
04/11:27am N 15 25 - - - - 10 - - 16.8 1010.9 0.0
04/11:00am NNW 12 22 - - - - 10 - - 16.8 1011.1 0.0
04/10:38am N 15 27 - - - - 10 - - 16.5 1011.0 0.0
04/10:30am NNW 14 27 - - - - 10 - - 16.2 1011.0 0.0
04/10:00am N 12 20 - - - - 10 - - 16.4 1011.0 0.0
04/09:30am N 12 19 - - - - 10 - - 16.0 1011.2 0.0
04/09:00am N 10 20 - - - - 10 - - 15.1 1011.4 6.8
04/08:30am N 10 17 - - - - 10 - - 14.8 1011.5 6.8
04/08:00am N 8 15 - - - - 10 - - 14.2 1011.5 6.8
04/07:30am N 9 13 - - - - 10 - - 14.0 1011.3 6.8
04/07:00am N 9 15 - - - - 10 - - 14.0 1011.2 6.8
04/06:30am N 7 11 - - - - 10 - - 14.1 1011.1 6.8
04/06:00am N 3 7 - - - - 10 - - 13.7 1011.0 6.8
04/05:30am N 5 9 - - - - 10 - - 13.7 1011.1 6.8
04/05:00am N 5 9 - - - - 10 - - 13.8 1011.4 6.8
04/04:30am N 5 8 - - - - 10 - - 13.8 1011.6 6.8
04/04:00am NNE 4 9 - - - - 10 - - 13.5 1011.7 6.8
04/03:30am NE 4 6 - - - - 10 - - 13.4 1012.0 6.8
04/03:00am N 4 5 - - - - 10 - - 13.6 1012.1 6.8
04/02:30am N 4 8 - - - - 10 - - 13.9 1012.4 6.8
04/02:00am N 6 10 - - - - 10 - - 14.1 1012.2 6.8
04/01:30am N 7 12 - - - - 10 - - 14.2 1012.2 6.8
04/01:00am N 8 12 - - - - 10 - - 14.4 1012.3 6.8
04/12:30am N 9 14 - - - - 10 - - 14.5 1012.4 6.8
04/12:00am N 8 13 - - - - 10 - - 14.5 1012.4 6.8
 
Date/Time
EST
Wind Sea
Height
m
Swell Vis
km
Cloud Weather Temp
°C
Press
MSL
hPa
Rain since
9am
mm
Dir  Spd
kts
Gust
kts
Height
m
Period
s
Dir
03/11:30pm NNW 7 11 - - - - 10 - - 14.9 1012.5 6.8
03/11:00pm N 8 11 - - - - 10 - - 15.2 1012.9 6.8
03/10:30pm N 9 14 - - - - 10 - - 15.5 1013.0 6.8
03/10:00pm N 8 13 - - - - 10 - - 15.6 1013.4 6.8
03/09:30pm N 5 9 - - - - 10 - - 15.6 1013.3 6.8
03/09:00pm N 5 9 - - - - 10 - - 15.6 1012.8 6.8
03/08:30pm N 6 11 - - - - 10 - - 15.7 1013.1 6.8
03/08:00pm NNE 5 10 - - - - 10 - - 15.7 1012.8 6.8
03/07:30pm N 6 9 - - - - 10 - - 15.9 1012.6 6.8
03/07:00pm N 7 9 - - - - 10 - - 16.3 1012.2 6.8
03/06:30pm NNW 6 9 - - - - 10 - - 16.5 1011.5 6.8
03/06:00pm N 5 7 - - - - 10 - - 16.8 1011.4 6.8
03/05:30pm N 6 10 - - - - 10 - - 17.2 1011.1 6.8
03/05:00pm NNW 7 11 - - - - 10 - - 18.8 1010.8 6.8
03/04:30pm NNW 8 11 - - - - 10 - - 19.4 1010.6 6.8
03/04:00pm NW 7 12 - - - - 10 - - 19.0 1010.4 6.8
03/03:30pm NNW 6 9 - - - - 10 - - 18.3 1010.5 6.8
03/03:00pm NNW 7 11 - - - - 10 - Recent precip. 18.1 1010.6 6.8
03/02:30pm NW 8 13 - - - - 10 - - 18.1 1010.2 6.8
03/02:00pm N 8 13 - - - - 10 - - 19.4 1010.0 6.8
03/01:30pm N 9 16 - - - - 10 - - 20.1 1009.9 6.8
03/01:00pm NNW 11 19 - - - - 10 - - 20.1 1010.2 6.8
03/12:37pm N 15 26 - - - - 10 - - 20.5 1010.2 6.8
03/12:30pm N 14 24 - - - - 10 - - 20.7 1010.2 6.8
03/12:00pm N 10 18 - - - - 10 - Rain 19.8 1010.3 6.8
03/11:30am N 9 16 - - - - 10 - - 18.1 1009.9 6.6
03/11:00am NNE 10 17 - - - - 10 - - 18.1 1010.4 5.2
03/10:30am NNE 9 14 - - - - 10 - - 18.0 1010.9 4.8
03/10:00am NNE 8 14 - - - - 10 - - 18.5 1011.5 2.6
03/09:30am N 10 16 - - - - 10 - - 19.9 1011.3 0.2
03/09:00am NNE 10 16 - - - - 10 - - 20.7 1011.6 0.0
03/08:30am NE 7 11 - - - - 10 - - 20.0 1010.8 0.0
03/08:00am NE 4 8 - - - - 10 - - 19.2 1011.7 0.0
03/07:30am NNE 8 14 - - - - 10 - - 19.1 1011.5 0.0
03/07:00am N 11 21 - - - - 10 - - 19.2 1011.5 0.0
03/06:30am N 12 25 - - - - 10 - - 19.4 1012.1 0.0
03/06:00am N 13 21 - - - - 10 - - 19.9 1012.4 0.0
03/05:30am N 10 18 - - - - 10 - - 19.6 1012.1 0.0
03/05:00am N 10 22 - - - - 10 - - 20.2 1011.6 0.0
03/04:30am N 11 23 - - - - 10 - - 20.7 1011.6 0.0
03/04:12am N 15 25 - - - - 10 - - 20.9 1011.7 0.0
03/04:00am N 10 19 - - - - 10 - - 21.2 1012.0 0.0
03/03:30am N 5 10 - - - - 10 - - 21.1 1012.4 0.0
03/03:00am N 5 7 - - - - 10 - - 20.9 1012.5 0.0
03/02:30am NNW 5 9 - - - - 10 - - 21.0 1012.5 0.0
03/02:00am N 6 10 - - - - 10 - - 21.2 1012.6 0.0
03/01:30am N 6 9 - - - - 10 - - 21.2 1013.0 0.0
03/01:00am N 5 9 - - - - 10 - - 21.1 1013.0 0.0
03/12:30am N 6 9 - - - - 10 - - 21.0 1013.3 0.0
03/12:00am N 9 14 - - - - 10 - - 21.1 1013.7 0.0
 
Date/Time
EST
Wind Sea
Height
m
Swell Vis
km
Cloud Weather Temp
°C
Press
MSL
hPa
Rain since
9am
mm
Dir  Spd
kts
Gust
kts
Height
m
Period
s
Dir
02/11:30pm N 8 14 - - - - 10 - - 21.3 1013.7 0.0
02/11:00pm N 8 13 - - - - 10 - - 21.7 1014.1 0.0
02/10:30pm N 8 12 - - - - 10 - - 22.4 1014.3 0.0
02/10:00pm N 8 11 - - - - 10 - - 22.4 1014.6 0.0
02/09:30pm N 7 11 - - - - 10 - - 22.8 1014.4 0.0
02/09:00pm N 5 8 - - - - 10 - - 22.4 1014.4 0.0
02/08:30pm NNE 4 6 - - - - 10 - - 22.3 1014.4 0.0
02/08:00pm NNE 4 7 - - - - 10 - - 22.8 1014.5 0.0
02/07:30pm NNE 4 6 - - - - 10 - - 23.1 1014.5 0.0
02/07:00pm N 7 14 - - - - 10 - - 23.7 1014.6 0.0
02/06:30pm N 8 13 - - - - 10 - - 23.7 1014.4 0.0
02/06:00pm N 7 11 - - - - 10 - - 23.6 1014.5 0.0
02/05:30pm N 7 12 - - - - 10 - - 23.9 1014.3 0.0
02/05:00pm NNE 9 15 - - - - 10 - - 24.0 1014.3 0.0
02/04:30pm N 11 17 - - - - 10 - - 24.4 1014.2 0.0
02/04:00pm N 11 19 - - - - 10 - - 24.3 1014.3 0.0
02/03:30pm N 10 16 - - - - 10 - - 24.1 1014.6 0.0
02/03:00pm N 10 18 - - - - 10 - - 24.0 1014.8 0.0
02/02:30pm N 10 17 - - - - 10 - - 24.0 1015.1 0.0
02/02:00pm N 7 14 - - - - 10 - - 24.0 1015.5 0.0
02/01:30pm N 5 8 - - - - 10 - - 23.1 1015.9 0.0
02/01:00pm NNE 5 9 - - - - 10 - - 23.0 1016.4 0.0
02/12:30pm NE 7 11 - - - - 10 - - 22.7 1017.0 0.0
02/12:00pm NNE 7 11 - - - - 10 - - 22.2 1017.7 0.0
02/11:30am NNE 7 12 - - - - 10 - - 22.0 1018.1 0.0
02/11:00am NNE 7 11 - - - - 10 - - 21.8 1018.5 0.0
02/10:30am NNE 7 11 - - - - 10 - - 21.5 1018.8 0.0
02/10:00am NNE 5 8 - - - - 10 - - 21.1 1019.0 0.0
02/09:30am NNW 1 3 - - - - 10 - - 19.5 1019.2 0.0
02/09:00am CALM 0 0 - - - - 10 - - 19.1 1019.4 0.0
02/08:30am N 4 6 - - - - 10 - - 18.7 1019.3 0.0
02/08:00am N 3 6 - - - - 10 - - 17.7 1019.1 0.0
02/07:30am NNE 5 7 - - - - 10 - - 17.1 1019.0 0.0
02/07:00am NNE 4 6 - - - - 10 - - 16.7 1018.8 0.0
02/06:30am NNE 5 6 - - - - 10 - - 16.7 1018.8 0.0
02/06:00am NNE 4 5 - - - - 10 - - 16.8 1018.7 0.0
02/05:30am NE 4 5 - - - - 10 - - 16.9 1018.8 0.0
02/05:00am NNE 5 6 - - - - 10 - - 16.9 1018.8 0.0
02/04:30am NNE 4 6 - - - - 10 - - 17.0 1019.0 0.0
02/04:00am NE 2 5 - - - - 10 - - 15.5 1019.0 0.0
02/03:30am CALM 0 0 - - - - 10 - - 14.3 1019.1 0.0
02/03:00am CALM 0 0 - - - - 10 - - 14.6 1019.3 0.0
02/02:30am CALM 0 3 - - - - 10 - - 16.0 1019.5 0.0
02/02:00am NNE 3 4 - - - - 10 - - 17.2 1019.9 0.0
02/01:30am N 1 5 - - - - 10 - - 16.5 1020.1 0.0
02/01:00am N 3 4 - - - - 10 - - 16.8 1020.4 0.0
02/12:30am N 4 6 - - - - 10 - - 17.0 1020.6 0.0
02/12:00am N 4 5 - - - - 10 - - 17.4 1020.8 0.0
 
Date/Time
EST
Wind Sea
Height
m
Swell Vis
km
Cloud Weather Temp
°C
Press
MSL
hPa
Rain since
9am
mm
Dir  Spd
kts
Gust
kts
Height
m
Period
s
Dir
01/11:30pm N 5 7 - - - - 10 - - 18.1 1021.3 0.0
01/11:00pm NNW 3 5 - - - - 10 - - 17.8 1021.5 0.0
01/10:30pm CALM 0 4 - - - - 10 - - 18.5 1021.7 0.0
01/10:00pm NNE 2 5 - - - - 10 - - 19.2 1021.8 0.0
01/09:30pm CALM 0 3 - - - - 10 - - 19.9 1021.8 0.0
01/09:00pm NE 4 6 - - - - 10 - - 21.0 1021.9 0.0
01/08:30pm NE 3 5 - - - - 10 - - 21.1 1021.7 0.0
01/08:00pm NNE 2 4 - - - - 10 - - 21.3 1021.7 0.0

Other formats

Comma delimited format used in spreadsheet applications
http://www.bom.gov.au/fwo/IDV60701/IDV60701.95936.axf

JavaScript Object Notation format (JSON) in row-major order
http://www.bom.gov.au/fwo/IDV60701/IDV60701.95936.json

Data quality

Most of these data are generated automatically and are frequently updated. Quality checks on data are not normally performed. It is possible for incorrect values to appear. Refer to information at About Latest Weather Observations and please check the disclaimer before using these data.